Armorel, Arkansas
Current Conditions -  °F | °C
As of 3:53 PM on Friday 24 Oct 2014 (Local Time) from KHKA Reporting Station
Clear Clear  
Wind Chill: 24°   Ceiling: Unl
Heat Index: 24°   Visibility: 10mi
Dew Point: 13°   Wind: 8mph
Humidity: 50%   Direction: 300°WNW
Pressure: 30.07"   Gusts: NA
Location:  35.92°N, 89.8°W
Report Text: KHKA 242053Z AUTO 30007KT 10SM CLR 24/13 A3007 RMK AO2 SLP181 T02390128 56018
Loading
Personal Weather Stations






























Interactive Weather Map
Tropical Storm Tracking
New forecast layout! Learn more

10-Day Weather Forecast

Advertisements
Track Severe Weather on mobile